Wakayama, Japan
Current Conditions -  °F | °C
As of 11:00 PM on Thursday 30 Oct 2014 (Local Time) from RJBB Reporting Station
Broken Clouds Broken Clouds  
Wind Chill: 64°   Ceiling: 18000
Heat Index: 64°   Visibility: 6mi
Dew Point: 55°   Wind: 3mph
Humidity: 73%   Direction: 140°SE
Pressure: 30.24"   Gusts: NA
Location:  34.22°N, 135.17°E
Report Text: RJBB 301400Z 14003KT 110V190 9999 FEW035 SCT120 BKN180 18/13 Q1024 NOSIG
Loading
Personal Weather Stations






























Interactive Weather Map
Tropical Storm Tracking
New forecast layout! Learn more

10-Day Weather Forecast

Advertisements
Track Severe Weather on mobile